Time;durP1;ratioP1;P1;durP2;ratioP2;P2;SDS_P1;SDS_P2;PMS_P1;PMS_P2;Temp;Humidity;BMP_temperature;BMP_pressure;BME280_temperature;BME280_humidity;BME280_pressure;Samples;Min_cycle;Max_cycle;Signal;HPM_P1;HPM_P2
2021/06/20 00:01:41;;;;;;;8.23;4.93;;;;;;;20.49;65.18;99211.59;5051317;28;20474;-79
2021/06/20 00:04:07;;;;;;;17.48;5.32;;;;;;;20.37;65.03;99207.16;5050940;28;20150;-79
2021/06/20 00:06:35;;;;;;;9.98;4.15;;;;;;;20.32;65.22;99207.56;5049377;28;20533;-79
2021/06/20 00:09:07;;;;;;;10.85;5.05;;;;;;;20.34;65.68;99200.25;5046218;28;20487;-79
2021/06/20 00:11:34;;;;;;;7.25;4.13;;;;;;;20.24;65.55;99201.09;5044933;28;20042;-79
2021/06/20 00:14:00;;;;;;;7.75;4.50;;;;;;;20.12;66.07;99204.34;5046163;28;20037;-79
2021/06/20 00:16:25;;;;;;;11.38;4.93;;;;;;;20.05;65.73;99214.50;5045339;28;20032;-79
2021/06/20 00:18:51;;;;;;;12.80;4.50;;;;;;;19.94;66.22;99204.34;5050544;28;20129;-78
2021/06/20 00:21:18;;;;;;;11.25;3.47;;;;;;;19.90;65.89;99205.16;5050949;28;20483;-80
2021/06/20 00:23:44;;;;;;;11.20;4.82;;;;;;;19.83;66.04;99205.13;5050449;28;20108;-79
2021/06/20 00:26:09;;;;;;;12.23;3.55;;;;;;;19.76;65.89;99196.63;5050843;28;20120;-77
2021/06/20 00:28:35;;;;;;;10.50;3.80;;;;;;;19.66;66.04;99203.91;5048321;28;20026;-79
2021/06/20 00:31:00;;;;;;;11.50;3.92;;;;;;;19.62;66.09;99205.94;5048599;28;20067;-78
2021/06/20 00:33:25;;;;;;;5.53;3.92;;;;;;;19.61;66.63;99205.13;5048863;28;20119;-79
2021/06/20 00:35:51;;;;;;;3.42;3.10;;;;;;;19.63;66.30;99208.38;5050496;28;20552;-77
2021/06/20 00:38:17;;;;;;;6.40;3.70;;;;;;;19.56;65.94;99207.56;5050315;28;20021;-77
2021/06/20 00:40:42;;;;;;;9.35;3.65;;;;;;;19.55;66.13;99218.09;5049001;28;20091;-79
2021/06/20 00:43:08;;;;;;;12.18;3.95;;;;;;;19.53;66.43;99212.00;5050543;28;20025;-77
2021/06/20 00:45:33;;;;;;;7.78;3.00;;;;;;;19.52;65.84;99216.06;5050436;28;20029;-77
2021/06/20 00:47:59;;;;;;;5.82;2.83;;;;;;;19.48;65.61;99209.56;5045708;28;20029;-77
2021/06/20 00:50:26;;;;;;;5.00;3.00;;;;;;;19.49;66.11;99209.16;5044870;28;20033;-78
2021/06/20 00:52:55;;;;;;;14.05;3.05;;;;;;;19.48;65.67;99204.69;5047961;28;20045;-78
2021/06/20 00:55:21;;;;;;;7.80;3.47;;;;;;;19.37;66.31;99203.88;5050330;28;20051;-79
2021/06/20 00:57:47;;;;;;;12.82;3.78;;;;;;;19.29;66.44;99194.53;5048579;28;20036;-77
2021/06/20 01:00:13;;;;;;;8.80;3.03;;;;;;;19.35;66.57;99201.41;5045588;28;20030;-77
2021/06/20 01:02:38;;;;;;;6.20;3.78;;;;;;;19.32;66.43;99190.88;5043330;28;20078;-78
2021/06/20 01:05:09;;;;;;;7.10;2.90;;;;;;;19.34;66.21;99196.97;5050095;28;20494;-78
2021/06/20 01:07:34;;;;;;;10.65;3.20;;;;;;;19.28;66.02;99192.09;5050140;28;20429;-78
2021/06/20 01:10:00;;;;;;;8.48;2.78;;;;;;;19.28;66.60;99194.94;5050034;28;20032;-78
2021/06/20 01:12:26;;;;;;;8.18;3.50;;;;;;;19.36;66.46;99199.41;5050001;28;20040;-77
2021/06/20 01:14:52;;;;;;;6.97;4.30;;;;;;;19.47;66.25;99203.09;5048476;28;20072;-77
2021/06/20 01:17:19;;;;;;;7.28;2.90;;;;;;;19.49;65.66;99203.50;5049928;28;20069;-77
2021/06/20 01:19:45;;;;;;;5.63;3.55;;;;;;;19.51;65.53;99208.75;5049988;28;20057;-77
2021/06/20 01:22:20;;;;;;;7.60;3.53;;;;;;;19.48;65.66;99210.38;5035912;28;20473;-77
2021/06/20 01:25:01;;;;;;;12.90;3.33;;;;;;;19.46;65.78;99211.97;5048766;28;20033;-78
2021/06/20 01:27:33;;;;;;;10.70;4.13;;;;;;;19.49;65.52;99208.38;5032665;28;20068;-78
2021/06/20 01:29:59;;;;;;;11.35;4.47;;;;;;;19.45;65.47;99214.03;5040030;28;20026;-78
2021/06/20 01:32:24;;;;;;;9.15;3.42;;;;;;;19.40;65.80;99203.06;5040878;28;20048;-77
2021/06/20 01:34:50;;;;;;;7.63;3.58;;;;;;;19.42;65.96;99208.34;5049757;28;20029;-77
2021/06/20 01:37:17;;;;;;;6.60;3.72;;;;;;;19.46;66.12;99204.28;5042704;28;20025;-76
2021/06/20 01:39:43;;;;;;;11.02;3.83;;;;;;;19.53;65.95;99194.16;5030537;28;20036;-78
2021/06/20 01:42:14;;;;;;;3.75;3.45;;;;;;;19.48;65.63;99201.88;5033971;28;20061;-77
2021/06/20 01:44:57;;;;;;;9.63;3.38;;;;;;;19.47;65.60;99205.09;5036376;28;20045;-78
2021/06/20 01:47:24;;;;;;;8.73;3.85;;;;;;;19.47;65.92;99211.59;5049385;28;20029;-76
2021/06/20 01:49:49;;;;;;;11.20;3.85;;;;;;;19.52;65.64;99209.56;5038187;28;20048;-78
2021/06/20 01:52:20;;;;;;;16.15;4.82;;;;;;;19.55;66.54;99205.91;5040320;28;20028;-78
2021/06/20 01:54:52;;;;;;;8.57;4.07;;;;;;;19.61;65.71;99216.47;5051831;28;20145;-79
2021/06/20 01:57:26;;;;;;;10.45;3.70;;;;;;;19.55;66.06;99214.41;5050530;28;20111;-78
2021/06/20 01:59:52;;;;;;;4.20;3.45;;;;;;;19.57;66.18;99209.97;5052908;28;20478;-78
2021/06/20 02:02:18;;;;;;;8.43;4.28;;;;;;;19.49;66.16;99206.31;5051550;28;20032;-78
2021/06/20 02:04:44;;;;;;;9.93;3.95;;;;;;;19.53;66.66;99214.00;5052579;28;20029;-78
2021/06/20 02:07:10;;;;;;;4.45;3.50;;;;;;;19.44;66.64;99212.41;5052507;28;20025;-78
2021/06/20 02:09:37;;;;;;;8.65;3.70;;;;;;;19.46;65.58;99215.63;5051224;28;20036;-78
2021/06/20 02:12:09;;;;;;;16.92;3.75;;;;;;;19.49;65.76;99220.50;5052659;28;20039;-78
2021/06/20 02:14:36;;;;;;;7.18;3.22;;;;;;;19.53;65.33;99222.53;5052540;28;20442;-78
2021/06/20 02:17:13;;;;;;;6.57;3.22;;;;;;;19.53;65.11;99228.19;5052460;28;20037;-78
2021/06/20 02:19:38;;;;;;;8.48;3.13;;;;;;;19.53;65.55;99226.19;5051974;28;20131;-78
2021/06/20 02:22:04;;;;;;;7.07;3.60;;;;;;;19.54;65.21;99232.66;5052522;28;20047;-78
2021/06/20 02:24:29;;;;;;;6.07;3.42;;;;;;;19.60;65.41;99233.91;5051732;28;20522;-78
2021/06/20 02:26:55;;;;;;;16.00;3.72;;;;;;;19.59;65.75;99240.78;5051280;28;20411;-78
2021/06/20 02:29:20;;;;;;;6.43;3.22;;;;;;;19.62;64.92;99234.31;5052259;28;20388;-78
2021/06/20 02:31:45;;;;;;;7.47;3.08;;;;;;;19.57;64.39;99238.34;5052096;28;20529;-78
2021/06/20 02:34:11;;;;;;;6.10;3.53;;;;;;;19.53;64.57;99223.34;5052104;28;20426;-78
2021/06/20 02:36:36;;;;;;;9.70;3.75;;;;;;;19.57;64.63;99227.00;5051826;28;20088;-78
2021/06/20 02:39:03;;;;;;;6.40;3.17;;;;;;;19.57;64.67;99223.38;5049106;28;20028;-78
2021/06/20 02:41:28;;;;;;;12.40;4.38;;;;;;;19.61;65.18;99232.69;5047663;28;20040;-78
2021/06/20 02:43:55;;;;;;;7.43;3.40;;;;;;;19.60;65.47;99228.22;5039471;28;20018;-78
2021/06/20 02:46:21;;;;;;;8.50;3.78;;;;;;;19.60;65.25;99225.38;5038721;28;20089;-78
2021/06/20 02:48:46;;;;;;;10.07;3.80;;;;;;;19.61;65.75;99227.84;5040935;28;20101;-78
2021/06/20 02:51:12;;;;;;;8.90;4.15;;;;;;;19.56;64.88;99231.03;5040519;28;20033;-76
2021/06/20 02:53:37;;;;;;;8.02;4.22;;;;;;;19.53;64.87;99231.03;5035355;28;20207;-78
2021/06/20 02:56:03;;;;;;;4.05;3.38;;;;;;;19.50;64.87;99244.00;5046280;28;20022;-78
2021/06/20 02:58:28;;;;;;;6.82;3.88;;;;;;;19.51;65.10;99237.13;5041169;28;20052;-78
2021/06/20 03:00:54;;;;;;;10.13;3.17;;;;;;;19.46;64.36;99240.34;5050265;28;20502;-78
2021/06/20 03:03:19;;;;;;;6.65;3.42;;;;;;;19.42;64.58;99240.31;5050912;28;20032;-78
2021/06/20 03:05:45;;;;;;;4.63;3.10;;;;;;;19.38;65.38;99242.34;5050269;28;20048;-78
2021/06/20 03:08:10;;;;;;;8.60;3.80;;;;;;;19.43;64.78;99233.47;5051555;28;20043;-78
2021/06/20 03:10:36;;;;;;;5.50;3.78;;;;;;;19.43;64.86;99233.47;5049767;28;20025;-78
2021/06/20 03:13:06;;;;;;;6.75;3.78;;;;;;;19.43;65.41;99244.81;5050229;28;20484;-78
2021/06/20 03:15:32;;;;;;;6.47;3.20;;;;;;;19.48;65.20;99235.06;5051585;28;20045;-78
2021/06/20 03:17:58;;;;;;;14.68;3.78;;;;;;;19.55;65.24;99235.09;5050993;28;20458;-78
2021/06/20 03:20:23;;;;;;;3.85;3.45;;;;;;;19.61;64.91;99235.50;5049999;28;20041;-78
2021/06/20 03:22:50;;;;;;;5.60;3.25;;;;;;;19.59;65.02;99244.41;5036622;28;20112;-77
2021/06/20 03:25:15;;;;;;;3.30;3.00;;;;;;;19.64;65.10;99243.22;5039024;28;20029;-78
2021/06/20 03:27:41;;;;;;;4.57;3.47;;;;;;;19.68;65.36;99249.72;5037547;28;20048;-77
2021/06/20 03:30:07;;;;;;;6.28;3.20;;;;;;;19.71;65.25;99237.56;5038513;28;20056;-79
2021/06/20 03:32:33;;;;;;;4.80;2.88;;;;;;;19.72;64.62;99242.03;5046157;28;20031;-74
2021/06/20 03:34:59;;;;;;;3.72;3.10;;;;;;;19.63;64.72;99241.59;5043871;28;20419;-78
2021/06/20 03:37:24;;;;;;;3.20;2.90;;;;;;;19.61;64.97;99244.03;5040890;28;20033;-78
2021/06/20 03:39:51;;;;;;;3.75;3.40;;;;;;;19.57;64.95;99246.06;5044896;28;20040;-75
2021/06/20 03:42:16;;;;;;;8.85;3.10;;;;;;;19.66;65.57;99249.28;5051274;28;20024;-80
2021/06/20 03:44:42;;;;;;;10.30;3.88;;;;;;;19.58;65.36;99247.69;5039246;28;20495;-78
2021/06/20 03:47:08;;;;;;;8.10;3.70;;;;;;;19.63;65.84;99252.94;5046747;28;20429;-76
2021/06/20 03:49:34;;;;;;;5.15;3.53;;;;;;;19.57;65.89;99252.53;5046114;28;20033;-74
2021/06/20 03:52:00;;;;;;;5.72;3.05;;;;;;;19.68;66.24;99252.56;5047179;28;20028;-75
2021/06/20 03:54:25;;;;;;;5.57;3.80;;;;;;;19.69;65.94;99247.69;5050945;28;20146;-78
2021/06/20 03:56:53;;;;;;;3.33;3.03;;;;;;;19.71;66.69;99248.09;5038665;28;20811;-77
2021/06/20 03:59:18;;;;;;;4.07;3.65;;;;;;;19.75;66.04;99249.72;5037450;28;20043;-75
2021/06/20 04:01:44;;;;;;;5.72;3.33;;;;;;;19.70;66.25;99247.28;5046569;28;20499;-77
2021/06/20 04:04:09;;;;;;;6.30;3.92;;;;;;;19.78;66.39;99254.56;5047712;28;20025;-80
2021/06/20 04:06:35;;;;;;;10.35;4.35;;;;;;;19.80;65.78;99242.84;5044450;28;20034;-78
2021/06/20 04:09:01;;;;;;;5.00;3.83;;;;;;;19.74;66.26;99259.44;5036760;28;20075;-80
2021/06/20 04:11:26;;;;;;;4.53;3.67;;;;;;;19.74;65.56;99259.44;5033018;28;20108;-80
2021/06/20 04:13:52;;;;;;;7.40;3.80;;;;;;;19.80;65.43;99264.75;5031605;28;20036;-76
2021/06/20 04:16:18;;;;;;;7.18;3.75;;;;;;;19.80;66.33;99256.22;5043990;28;20099;-80
2021/06/20 04:18:44;;;;;;;4.15;3.70;;;;;;;19.77;65.96;99252.97;5035048;28;20140;-77
2021/06/20 04:21:09;;;;;;;3.70;3.40;;;;;;;19.80;66.25;99261.91;5036889;28;20040;-76
2021/06/20 04:23:35;;;;;;;5.38;3.20;;;;;;;19.78;66.08;99253.78;5044657;28;20040;-77
2021/06/20 04:26:00;;;;;;;5.95;3.10;;;;;;;19.85;65.66;99253.81;5046369;28;20041;-77
2021/06/20 04:28:26;;;;;;;5.38;3.42;;;;;;;19.87;65.85;99257.03;5045956;28;20048;-79
2021/06/20 04:30:56;;;;;;;8.95;3.42;;;;;;;19.87;66.19;99259.06;5045288;28;20049;-80
2021/06/20 04:33:23;;;;;;;8.25;3.88;;;;;;;19.77;66.51;99269.97;5046771;28;20061;-81
2021/06/20 04:35:51;;;;;;;4.00;3.60;;;;;;;19.75;66.43;99261.06;5037319;28;20341;-80
2021/06/20 04:38:18;;;;;;;4.07;3.78;;;;;;;19.75;66.70;99266.75;5032932;28;20017;-80
2021/06/20 04:40:45;;;;;;;9.32;3.58;;;;;;;19.80;66.94;99267.56;5036652;28;20044;-80
2021/06/20 04:43:23;;;;;;;6.85;3.83;;;;;;;19.89;66.85;99259.47;5043865;28;20031;-79
2021/06/20 04:45:48;;;;;;;4.93;3.28;;;;;;;19.95;66.36;99262.72;5035480;28;20034;-76
2021/06/20 04:48:14;;;;;;;8.45;3.78;;;;;;;20.03;65.94;99270.88;5048830;28;20033;-79
2021/06/20 04:50:39;;;;;;;4.25;3.80;;;;;;;20.10;66.44;99263.56;5048822;28;20083;-79
2021/06/20 04:53:05;;;;;;;4.82;3.92;;;;;;;20.09;66.47;99265.59;5035657;28;20026;-76
2021/06/20 04:55:30;;;;;;;5.38;3.83;;;;;;;20.21;65.79;99264.38;5034625;28;20038;-79
2021/06/20 04:57:55;;;;;;;3.72;3.42;;;;;;;20.29;65.15;99265.19;5033104;28;20111;-77
2021/06/20 05:00:22;;;;;;;4.72;3.70;;;;;;;20.47;65.47;99265.97;5033805;28;20037;-79
2021/06/20 05:02:48;;;;;;;6.63;3.40;;;;;;;20.51;64.12;99265.94;5044479;28;20510;-76
2021/06/20 05:05:13;;;;;;;6.95;3.47;;;;;;;20.58;63.59;99256.63;5048293;28;20122;-77
2021/06/20 05:07:39;;;;;;;4.05;3.33;;;;;;;20.59;62.98;99258.25;5044676;28;20033;-76
2021/06/20 05:10:06;;;;;;;7.78;2.80;;;;;;;20.66;62.14;99254.59;5041782;28;20076;-80
2021/06/20 05:12:34;;;;;;;3.38;2.33;;;;;;;20.60;62.33;99257.81;5044714;28;20179;-76
2021/06/20 05:15:00;;;;;;;7.55;2.88;;;;;;;20.77;61.82;99259.00;5050260;28;20033;-80
2021/06/20 05:17:25;;;;;;;4.43;2.80;;;;;;;20.74;61.44;99259.00;5044912;28;20533;-79
2021/06/20 05:19:51;;;;;;;3.55;3.25;;;;;;;20.74;61.57;99256.16;5047601;28;20065;-79
2021/06/20 05:22:19;;;;;;;3.75;2.95;;;;;;;20.87;61.99;99262.25;5049108;28;20124;-76
2021/06/20 05:24:44;;;;;;;20.80;3.83;;;;;;;20.95;61.38;99249.66;5050583;28;20037;-77
2021/06/20 05:27:10;;;;;;;4.65;2.38;;;;;;;20.88;60.43;99256.19;5051772;28;20572;-80
2021/06/20 05:29:37;;;;;;;4.72;2.47;;;;;;;20.99;60.12;99258.16;5037922;28;20476;-76
2021/06/20 05:32:03;;;;;;;6.18;2.30;;;;;;;20.95;60.19;99268.72;5051828;28;20029;-76
2021/06/20 05:34:28;;;;;;;5.22;2.72;;;;;;;21.07;59.91;99262.59;5048468;28;20031;-76
2021/06/20 05:36:54;;;;;;;6.78;2.35;;;;;;;21.17;60.53;99267.44;5050629;28;20033;-75
2021/06/20 05:39:19;;;;;;;5.00;2.72;;;;;;;21.24;60.70;99266.59;5041996;28;20035;-76
2021/06/20 05:41:45;;;;;;;2.50;2.30;;;;;;;21.28;60.00;99263.72;5051939;28;20104;-75
2021/06/20 05:44:10;;;;;;;4.15;2.50;;;;;;;21.43;59.87;99261.63;5046987;28;20087;-79
2021/06/20 05:46:36;;;;;;;2.92;2.72;;;;;;;21.48;59.38;99260.38;5040277;28;20033;-79
2021/06/20 05:49:01;;;;;;;5.78;3.10;;;;;;;21.54;59.75;99253.84;5043729;28;20074;-75
2021/06/20 05:51:27;;;;;;;5.25;3.42;;;;;;;21.56;59.93;99256.25;5039418;28;20034;-75
2021/06/20 05:53:54;;;;;;;3.67;2.88;;;;;;;21.68;59.50;99250.13;5038810;28;20026;-78
2021/06/20 05:56:20;;;;;;;3.63;2.40;;;;;;;21.75;57.67;99249.25;5038485;28;20034;-83
2021/06/20 05:58:46;;;;;;;2.85;2.10;;;;;;;21.71;58.77;99246.44;5037166;28;20029;-77
2021/06/20 06:01:12;;;;;;;5.10;2.05;;;;;;;21.85;58.05;99256.13;5041673;28;20423;-74
2021/06/20 06:03:37;;;;;;;4.07;2.40;;;;;;;21.89;57.52;99254.06;5037722;28;20037;-76
2021/06/20 06:06:03;;;;;;;2.63;2.40;;;;;;;22.00;57.49;99236.88;5046177;28;20041;-75
2021/06/20 06:08:28;;;;;;;5.07;1.90;;;;;;;22.01;56.40;99239.31;5037578;28;20547;-74
2021/06/20 06:10:57;;;;;;;9.43;2.92;;;;;;;22.14;56.85;99236.78;5040333;28;20064;-81
2021/06/20 06:13:23;;;;;;;2.72;2.20;;;;;;;22.15;55.61;99235.53;5038738;28;20021;-80
2021/06/20 06:15:48;;;;;;;4.88;2.03;;;;;;;22.17;54.57;99246.50;5040691;28;20034;-78
2021/06/20 06:18:17;;;;;;;4.85;2.30;;;;;;;22.11;55.13;99233.94;5041919;28;20411;-74
2021/06/20 06:20:42;;;;;;;6.20;2.65;;;;;;;22.27;54.88;99233.41;5036698;28;20037;-80
2021/06/20 06:23:10;;;;;;;2.38;1.88;;;;;;;22.46;54.55;99234.84;5039531;28;20026;-79
2021/06/20 06:25:36;;;;;;;2.10;1.92;;;;;;;22.57;54.56;99229.06;5043920;28;20509;-75
2021/06/20 06:28:02;;;;;;;3.42;2.40;;;;;;;22.52;54.33;99238.88;5046252;28;20098;-79
2021/06/20 06:30:27;;;;;;;4.97;2.20;;;;;;;22.76;54.92;99238.22;5047370;28;20037;-75
2021/06/20 06:32:53;;;;;;;3.70;2.00;;;;;;;22.90;52.78;99234.38;5041283;28;20111;-75
2021/06/20 06:35:19;;;;;;;2.20;2.00;;;;;;;22.85;52.70;99227.94;5033374;28;20033;-81
2021/06/20 06:37:45;;;;;;;1.70;1.60;;;;;;;22.79;51.03;99228.81;5033173;28;20033;-81
2021/06/20 06:40:11;;;;;;;2.97;2.03;;;;;;;22.93;52.07;99225.78;5034654;28;20403;-76
2021/06/20 06:42:37;;;;;;;5.05;1.42;;;;;;;23.05;49.97;99223.63;5037154;28;20034;-78
2021/06/20 06:45:04;;;;;;;1.95;1.73;;;;;;;23.13;51.17;99234.50;5034279;28;20385;-73
2021/06/20 06:47:30;;;;;;;1.90;1.80;;;;;;;23.20;51.06;99235.66;5033630;28;20026;-76
2021/06/20 06:49:56;;;;;;;5.13;1.75;;;;;;;23.28;49.99;99235.16;5046017;28;20083;-76
2021/06/20 06:52:22;;;;;;;3.17;1.60;;;;;;;23.35;51.06;99224.88;5044229;28;20063;-80
2021/06/20 06:54:51;;;;;;;6.45;2.08;;;;;;;23.31;51.21;99226.97;5047498;28;20033;-80
2021/06/20 06:57:21;;;;;;;9.63;2.25;;;;;;;23.50;50.97;99217.75;5039224;28;20031;-78
2021/06/20 06:59:47;;;;;;;;;;;;;;;23.64;51.10;99213.84;5034289;28;20504;-84
2021/06/20 07:02:13;;;;;;;1.45;1.35;;;;;;;23.71;51.34;99218.63;5046399;28;19952;-83
2021/06/20 07:04:39;;;;;;;4.38;2.10;;;;;;;23.89;49.52;99221.25;5048942;28;20048;-81
2021/06/20 07:07:04;;;;;;;4.05;1.80;;;;;;;23.92;47.97;99223.22;5047221;28;20502;-77
2021/06/20 07:09:30;;;;;;;3.42;1.55;;;;;;;23.98;49.66;99227.19;5043255;28;20044;-73
2021/06/20 07:11:56;;;;;;;3.20;2.10;;;;;;;24.11;50.80;99216.00;5048783;28;20040;-78
2021/06/20 07:14:21;;;;;;;5.35;1.90;;;;;;;24.18;51.31;99228.53;5044485;28;20029;-75
2021/06/20 07:16:47;;;;;;;2.55;2.25;;;;;;;24.18;49.53;99225.66;5045677;28;20047;-72
2021/06/20 07:19:12;;;;;;;6.88;1.83;;;;;;;24.15;49.75;99218.81;5044295;28;20055;-75
2021/06/20 07:21:39;;;;;;;5.35;2.40;;;;;;;24.11;49.56;99212.31;5043873;28;20052;-78
2021/06/20 07:24:05;;;;;;;9.88;2.30;;;;;;;24.16;48.98;99208.97;5038368;28;20033;-81
2021/06/20 07:26:31;;;;;;;1.73;1.63;;;;;;;24.33;48.39;99211.94;5042531;28;20033;-80
2021/06/20 07:28:57;;;;;;;3.30;1.50;;;;;;;24.49;48.15;99214.09;5038014;28;20067;-83
2021/06/20 07:31:23;;;;;;;2.58;2.00;;;;;;;24.51;46.90;99205.91;5034192;28;20488;-85
2021/06/20 07:33:48;;;;;;;2.88;1.92;;;;;;;24.40;47.86;99203.25;5046634;28;20079;-77
2021/06/20 07:36:15;;;;;;;3.58;1.40;;;;;;;24.60;47.91;99205.31;5038174;28;20112;-81
2021/06/20 07:38:42;;;;;;;2.92;1.80;;;;;;;24.66;46.30;99200.72;5031370;28;20121;-81
2021/06/20 07:41:08;;;;;;;2.88;1.50;;;;;;;24.64;46.65;99198.28;5036468;28;20510;-83
2021/06/20 07:43:33;;;;;;;5.63;1.88;;;;;;;24.80;46.98;99211.09;5037673;28;20037;-73
2021/06/20 07:45:59;;;;;;;2.95;1.90;;;;;;;24.78;46.67;99197.22;5034040;28;20060;-74
2021/06/20 07:48:24;;;;;;;4.00;1.95;;;;;;;24.77;47.38;99203.38;5036923;28;20060;-83
2021/06/20 07:50:51;;;;;;;2.65;1.42;;;;;;;24.76;46.14;99205.41;5047501;28;20025;-74
2021/06/20 07:53:16;;;;;;;1.60;1.30;;;;;;;24.68;45.86;99198.22;5040880;28;20138;-74
2021/06/20 07:55:42;;;;;;;5.43;1.85;;;;;;;24.80;46.87;99191.09;5040929;28;20457;-80
2021/06/20 07:58:08;;;;;;;7.05;1.70;;;;;;;25.05;46.16;99184.81;5040944;28;20025;-77
2021/06/20 08:00:33;;;;;;;1.40;1.30;;;;;;;25.13;44.89;99191.19;5047390;28;20287;-73
2021/06/20 08:02:59;;;;;;;1.20;1.10;;;;;;;25.15;44.51;99182.16;5034466;28;20028;-76
2021/06/20 08:05:24;;;;;;;4.22;2.50;;;;;;;25.21;43.78;99183.25;5037473;28;20033;-72
2021/06/20 08:07:50;;;;;;;8.50;2.05;;;;;;;25.35;44.79;99182.13;5046961;28;20407;-81
2021/06/20 08:10:15;;;;;;;3.42;1.63;;;;;;;25.53;44.87;99183.81;5047397;28;20029;-72
2021/06/20 08:12:42;;;;;;;3.80;3.17;;;;;;;25.32;43.89;99185.88;5043487;28;20151;-73
2021/06/20 08:15:08;;;;;;;3.65;1.52;;;;;;;25.43;45.18;99191.34;5034333;28;20527;-73
2021/06/20 08:17:36;;;;;;;2.08;1.73;;;;;;;25.41;44.65;99185.25;5042286;28;20033;-76
2021/06/20 08:20:03;;;;;;;1.83;1.60;;;;;;;25.44;44.91;99187.22;5035756;28;20065;-75
2021/06/20 08:22:29;;;;;;;1.80;1.30;;;;;;;25.57;45.10;99179.59;5037079;28;20083;-75
2021/06/20 08:24:54;;;;;;;2.17;1.60;;;;;;;25.59;44.12;99174.25;5033900;28;20479;-78
2021/06/20 08:27:20;;;;;;;4.97;1.83;;;;;;;25.67;45.15;99179.78;5049253;28;20013;-81
2021/06/20 08:29:48;;;;;;;1.95;1.30;;;;;;;25.60;44.15;99181.56;5041432;28;20037;-75
2021/06/20 08:32:13;;;;;;;1.50;1.35;;;;;;;25.64;42.49;99182.28;5036897;28;20071;-81
2021/06/20 08:34:39;;;;;;;3.53;1.45;;;;;;;25.69;43.21;99183.81;5045769;28;20034;-74
2021/06/20 08:37:04;;;;;;;1.85;1.25;;;;;;;25.59;40.28;99179.16;5049477;28;20098;-81
2021/06/20 08:39:30;;;;;;;2.00;1.38;;;;;;;25.78;41.15;99183.19;5043683;28;20087;-73
2021/06/20 08:41:56;;;;;;;1.75;1.02;;;;;;;25.96;40.46;99181.94;5051052;28;20482;-81
2021/06/20 08:44:28;;;;;;;2.65;1.30;;;;;;;26.15;43.49;99177.38;5050421;28;20414;-75
2021/06/20 08:46:54;;;;;;;1.17;1.08;;;;;;;26.21;41.59;99181.31;5050029;28;20055;-74
2021/06/20 08:49:20;;;;;;;1.45;1.10;;;;;;;26.27;41.47;99182.38;5042543;28;20029;-75
2021/06/20 08:51:49;;;;;;;2.17;1.17;;;;;;;26.45;40.58;99179.03;5033128;28;20489;-79
2021/06/20 08:54:15;;;;;;;1.23;1.13;;;;;;;26.57;41.71;99170.94;5038236;28;20029;-79
2021/06/20 08:56:41;;;;;;;7.03;1.30;;;;;;;26.89;41.18;99175.78;5033487;28;20025;-71
2021/06/20 08:59:07;;;;;;;5.32;1.85;;;;;;;27.05;39.57;99174.88;5037080;28;20028;-74
2021/06/20 09:01:34;;;;;;;2.03;1.58;;;;;;;26.85;40.21;99171.38;5036718;28;20033;-74
2021/06/20 09:04:00;;;;;;;4.20;1.30;;;;;;;26.77;40.66;99168.69;5036598;28;20025;-76
2021/06/20 09:06:26;;;;;;;2.90;1.98;;;;;;;26.66;41.13;99167.41;5034267;28;20502;-78
2021/06/20 09:09:00;;;;;;;5.20;2.42;;;;;;;26.58;41.36;99166.81;5033664;28;20112;-80
2021/06/20 09:11:33;;;;;;;1.67;1.55;;;;;;;26.21;41.03;99173.53;5031465;28;20071;-76
2021/06/20 09:14:01;;;;;;;1.13;1.10;;;;;;;26.24;40.88;99171.00;5048501;28;20031;-79
2021/06/20 09:16:27;;;;;;;9.40;2.80;;;;;;;26.19;43.01;99170.31;5039958;28;20049;-82
2021/06/20 09:18:53;;;;;;;4.20;2.17;;;;;;;26.33;43.26;99174.03;5036891;28;20473;-76
2021/06/20 09:21:26;;;;;;;8.60;2.10;;;;;;;26.18;41.72;99168.69;5036878;28;20040;-73
2021/06/20 09:23:57;;;;;;;3.05;1.80;;;;;;;25.85;43.01;99171.56;5031831;28;20441;-74
2021/06/20 09:26:34;;;;;;;6.22;2.00;;;;;;;25.85;44.22;99171.56;5032861;28;20040;-72
2021/06/20 09:29:00;;;;;;;8.20;1.75;;;;;;;25.99;43.88;99173.25;5042709;28;20114;-79
2021/06/20 09:31:26;;;;;;;5.43;1.65;;;;;;;26.11;42.57;99174.59;5048534;28;20794;-79
2021/06/20 09:33:59;;;;;;;4.05;2.40;;;;;;;26.01;43.63;99175.66;5040268;28;20090;-79
2021/06/20 09:36:29;;;;;;;3.15;1.83;;;;;;;26.07;43.05;99173.88;5035790;28;20067;-75
2021/06/20 09:38:55;;;;;;;5.47;1.67;;;;;;;25.97;43.92;99170.03;5041651;28;20045;-77
2021/06/20 09:41:21;;;;;;;2.55;1.92;;;;;;;25.95;43.11;99174.59;5035608;28;20038;-80
2021/06/20 09:43:55;;;;;;;4.32;2.13;;;;;;;25.92;42.83;99168.50;5039380;28;20419;-80
2021/06/20 09:46:21;;;;;;;2.83;2.50;;;;;;;25.90;43.82;99168.16;5048280;28;20033;-76
2021/06/20 09:48:47;;;;;;;4.25;1.60;;;;;;;26.04;44.63;99163.31;5041995;28;20030;-73
2021/06/20 09:51:25;;;;;;;2.15;1.23;;;;;;;26.24;43.92;99160.34;5035799;28;20521;-73
2021/06/20 09:53:53;;;;;;;4.95;1.58;;;;;;;26.10;44.66;99160.69;5045567;28;20029;-74
2021/06/20 09:56:23;;;;;;;11.65;2.63;;;;;;;26.18;45.32;99162.13;5040143;28;20487;-75
2021/06/20 09:58:59;;;;;;;1.88;1.33;;;;;;;26.24;45.12;99168.16;5037124;28;20132;-72
2021/06/20 10:01:27;;;;;;;8.95;2.30;;;;;;;26.17;47.34;99158.44;5036357;28;20055;-77
2021/06/20 10:03:54;;;;;;;3.95;1.35;;;;;;;26.49;45.18;99161.75;5047424;28;20029;-81
2021/06/20 10:06:19;;;;;;;2.28;1.88;;;;;;;26.70;44.14;99160.31;5044615;28;20487;-81
2021/06/20 10:08:45;;;;;;;2.42;1.48;;;;;;;26.92;43.04;99156.84;5047986;28;20112;-79
2021/06/20 10:11:12;;;;;;;2.08;1.42;;;;;;;27.01;41.97;99153.31;5052197;28;20029;-75
2021/06/20 10:13:39;;;;;;;2.53;1.48;;;;;;;26.96;41.98;99156.72;5052451;28;20519;-79
2021/06/20 10:16:24;;;;;;;3.47;1.50;;;;;;;26.94;42.06;99154.31;5048351;28;20045;-75
2021/06/20 10:19:04;;;;;;;3.03;1.70;;;;;;;26.88;42.69;99151.22;5037900;28;20041;-82
2021/06/20 10:21:37;;;;;;;;;;;;;;;26.84;43.28;99150.47;5040055;28;20035;-77
2021/06/20 10:24:12;;;;;;;4.80;2.05;;;;;;;26.97;41.83;99147.66;5052738;28;20015;-85
2021/06/20 10:26:39;;;;;;;6.30;2.38;;;;;;;26.99;41.76;99148.00;5048278;28;20048;-83
2021/06/20 10:29:25;;;;;;;4.13;2.00;;;;;;;27.09;42.94;99146.09;5052036;28;20032;-82
2021/06/20 10:31:52;;;;;;;4.00;2.25;;;;;;;27.11;41.90;99137.00;5048967;28;20041;-80
2021/06/20 10:34:20;;;;;;;1.55;1.45;;;;;;;27.21;40.60;99137.94;5045581;28;20022;-78
2021/06/20 10:36:48;;;;;;;4.18;1.63;;;;;;;27.10;40.19;99138.28;5051633;28;20047;-78
2021/06/20 10:39:14;;;;;;;5.00;1.30;;;;;;;26.88;39.36;99128.25;5048291;28;20110;-78
2021/06/20 10:41:40;;;;;;;4.15;1.50;;;;;;;26.89;39.25;99129.06;5035779;28;20037;-72
2021/06/20 10:44:06;;;;;;;1.70;1.20;;;;;;;26.99;39.83;99124.25;5034467;28;20044;-71
2021/06/20 10:46:32;;;;;;;2.42;1.63;;;;;;;27.13;40.11;99118.06;5041588;28;20037;-72
2021/06/20 10:48:59;;;;;;;1.85;1.20;;;;;;;27.21;38.57;99112.09;5045152;28;20025;-72
2021/06/20 10:51:25;;;;;;;1.90;1.17;;;;;;;27.10;40.13;99112.44;5046508;28;20511;-72
2021/06/20 10:53:52;;;;;;;6.65;1.27;;;;;;;27.47;40.43;99104.28;5049233;28;20064;-75
2021/06/20 10:56:26;;;;;;;1.60;1.25;;;;;;;27.70;38.48;99106.03;5044263;28;20033;-80
2021/06/20 10:58:53;;;;;;;2.10;1.30;;;;;;;27.86;39.14;99107.13;5050383;28;20187;-76
2021/06/20 11:01:22;;;;;;;1.95;0.90;;;;;;;27.80;38.37;99098.28;5049064;28;20056;-75
2021/06/20 11:03:50;;;;;;;1.35;1.10;;;;;;;27.77;38.20;99107.03;5044444;28;20025;-74
2021/06/20 11:06:18;;;;;;;2.03;1.25;;;;;;;27.15;41.23;99104.06;5049179;28;20025;-76
2021/06/20 11:08:52;;;;;;;2.35;1.38;;;;;;;27.13;39.96;99098.00;5046955;28;20053;-75
2021/06/20 11:11:23;;;;;;;1.40;1.20;;;;;;;27.64;38.18;99089.84;5043459;28;20057;-73
2021/06/20 11:13:54;;;;;;;2.95;1.25;;;;;;;27.98;38.72;99088.22;5032707;28;20126;-73
2021/06/20 11:16:30;;;;;;;1.23;1.13;;;;;;;28.15;36.86;99083.94;5037184;28;20040;-82
2021/06/20 11:19:11;;;;;;;0.80;0.80;;;;;;;28.19;35.27;99071.53;5043758;28;20459;-83
2021/06/20 11:21:41;;;;;;;5.20;1.30;;;;;;;28.16;35.71;99079.78;5042046;28;20036;-74
2021/06/20 11:24:09;;;;;;;1.10;1.00;;;;;;;27.89;38.98;99072.53;5041967;28;20025;-74
2021/06/20 11:26:35;;;;;;;2.47;1.10;;;;;;;28.20;38.22;99073.13;5046509;28;20029;-74
2021/06/20 11:29:07;;;;;;;1.15;1.05;;;;;;;28.67;34.93;99057.00;5049286;28;20025;-74
2021/06/20 11:31:51;;;;;;;1.40;1.05;;;;;;;28.36;34.88;99055.69;5049077;28;20040;-74
2021/06/20 11:34:16;;;;;;;3.17;1.00;;;;;;;28.71;37.01;99051.91;5042839;28;20025;-74